Time;durP1;ratioP1;P1;durP2;ratioP2;P2;SDS_P1;SDS_P2;PMS_P1;PMS_P2;Temp;Humidity;BMP_temperature;BMP_pressure;BME280_temperature;BME280_humidity;BME280_pressure;Samples;Min_cycle;Max_cycle;Signal;HPM_P1;HPM_P2
2022/08/15 00:01:48;;;;;;;3.13;0.60;;;17.50;99.90;;;;;;4974110;28;20183;-71
2022/08/15 00:04:16;;;;;;;1.43;0.60;;;17.90;99.90;;;;;;4974028;28;20179;-69
2022/08/15 00:06:46;;;;;;;1.23;0.60;;;18.30;99.90;;;;;;4975307;28;20546;-67
2022/08/15 00:09:18;;;;;;;1.17;0.60;;;18.70;99.90;;;;;;4978195;28;20694;-68
2022/08/15 00:11:49;;;;;;;2.73;0.57;;;18.90;99.90;;;;;;4972560;28;20237;-68
2022/08/15 00:14:27;;;;;;;2.40;0.50;;;18.50;99.90;;;;;;4973291;28;20283;-67
2022/08/15 00:16:55;;;;;;;2.30;0.80;;;18.40;98.00;;;;;;4973153;28;20250;-67
2022/08/15 00:19:29;;;;;;;1.03;0.60;;;18.20;98.20;;;;;;4973394;28;20318;-68
2022/08/15 00:22:06;;;;;;;2.37;0.60;;;18.20;99.90;;;;;;4973504;28;20654;-71
2022/08/15 00:24:36;;;;;;;3.70;0.97;;;18.30;99.90;;;;;;4973559;28;20713;-68
2022/08/15 00:27:07;;;;;;;2.27;0.87;;;18.30;99.90;;;;;;4973442;28;20175;-72
2022/08/15 00:29:36;;;;;;;0.70;0.50;;;18.30;96.10;;;;;;4973338;28;20179;-68
2022/08/15 00:32:10;;;;;;;2.20;0.80;;;18.10;95.90;;;;;;4973144;28;20222;-71
2022/08/15 00:34:39;;;;;;;0.63;0.57;;;18.00;96.40;;;;;;4956413;28;20186;-68
2022/08/15 00:37:07;;;;;;;1.43;0.50;;;17.80;98.90;;;;;;4972620;28;20195;-70
2022/08/15 00:39:35;;;;;;;3.97;0.90;;;17.80;98.60;;;;;;4954043;29;20263;-69
2022/08/15 00:42:05;;;;;;;1.63;0.77;;;17.70;99.70;;;;;;4953737;29;20180;-70
2022/08/15 00:44:44;;;;;;;8.03;0.70;;;17.90;99.90;;;;;;4954228;29;20238;-69
2022/08/15 00:47:19;;;;;;;1.37;0.70;;;17.80;98.00;;;;;;4945870;28;20195;-69
2022/08/15 00:49:48;;;;;;;0.60;0.60;;;18.00;98.40;;;;;;4973058;28;20466;-68
2022/08/15 00:52:21;;;;;;;0.40;0.40;;;18.30;99.00;;;;;;4972810;28;20298;-68
2022/08/15 00:54:54;;;;;;;2.27;0.80;;;18.20;96.10;;;;;;4972987;28;20183;-69
2022/08/15 00:57:39;;;;;;;1.40;0.57;;;18.20;98.70;;;;;;4971815;28;20199;-69
2022/08/15 01:00:17;;;;;;;3.30;0.70;;;18.30;96.30;;;;;;4972789;28;20182;-69
2022/08/15 01:02:45;;;;;;;3.33;0.77;;;18.50;94.10;;;;;;4972491;28;20182;-70
2022/08/15 01:05:14;;;;;;;3.50;0.77;;;18.70;91.90;;;;;;4972918;28;20319;-68
2022/08/15 01:07:43;;;;;;;1.13;0.70;;;18.80;91.90;;;;;;4954348;28;20194;-69
2022/08/15 01:10:11;;;;;;;3.50;1.07;;;18.40;91.10;;;;;;4972093;28;20234;-68
2022/08/15 01:12:39;;;;;;;1.33;0.60;;;18.40;93.40;;;;;;4972311;28;20216;-69
2022/08/15 01:15:14;;;;;;;0.57;0.57;;;19.10;90.00;;;;;;4955132;28;20187;-69
2022/08/15 01:17:43;;;;;;;2.67;0.70;;;19.30;88.00;;;;;;4972212;28;20229;-73
2022/08/15 01:20:18;;;;;;;2.20;0.83;;;19.40;90.40;;;;;;4972945;28;20191;-70
2022/08/15 01:23:01;;;;;;;0.93;0.50;;;18.90;83.40;;;;;;4972485;28;20182;-72
2022/08/15 01:25:36;;;;;;;2.90;0.60;;;18.50;92.60;;;;;;4972701;28;20580;-68
2022/08/15 01:28:08;;;;;;;0.60;0.60;;;18.40;92.20;;;;;;4972531;28;20171;-68
2022/08/15 01:31:06;;;;;;;4.10;0.70;;;18.20;88.10;;;;;;4955395;28;20506;-69
2022/08/15 01:33:42;;;;;;;2.77;0.57;;;18.40;92.60;;;;;;4954639;28;20683;-73
2022/08/15 01:36:11;;;;;;;0.70;0.50;;;18.30;90.60;;;;;;4972491;28;20644;-69
2022/08/15 01:38:43;;;;;;;1.70;0.80;;;18.00;93.90;;;;;;4972705;28;20179;-69
2022/08/15 01:41:41;;;;;;;0.57;0.50;;;18.10;91.30;;;;;;4972183;28;20194;-68
2022/08/15 01:44:21;;;;;;;1.07;0.40;;;19.30;90.60;;;;;;4972207;28;20685;-69
2022/08/15 01:46:56;;;;;;;0.80;0.53;;;20.00;82.70;;;;;;4972440;28;20211;-68
2022/08/15 01:49:41;;;;;;;1.07;0.60;;;21.00;73.80;;;;;;4971832;28;20669;-68
2022/08/15 01:52:14;;;;;;;2.53;0.50;;;21.50;66.60;;;;;;4972311;28;20249;-67
2022/08/15 01:54:42;;;;;;;0.60;0.47;;;21.70;65.60;;;;;;4972362;28;20179;-68
2022/08/15 01:57:11;;;;;;;1.07;0.50;;;22.00;60.20;;;;;;4971793;28;20212;-69
2022/08/15 01:59:39;;;;;;;1.73;0.50;;;22.00;58.60;;;;;;4966572;28;20616;-68
2022/08/15 02:02:11;;;;;;;2.03;0.50;;;21.60;55.50;;;;;;4971899;28;20179;-69
2022/08/15 02:04:42;;;;;;;2.53;0.40;;;21.80;60.70;;;;;;4972222;28;20555;-68
2022/08/15 02:07:18;;;;;;;3.67;0.63;;;22.10;54.00;;;;;;4972219;28;20670;-69
2022/08/15 02:09:50;;;;;;;2.03;0.50;;;22.20;48.70;;;;;;4972060;28;20670;-68
2022/08/15 02:12:21;;;;;;;2.63;0.53;;;22.10;48.30;;;;;;4971454;28;20233;-69
2022/08/15 02:14:49;;;;;;;0.70;0.53;;;22.00;46.70;;;;;;4970668;28;20217;-69
2022/08/15 02:17:17;;;;;;;0.93;0.43;;;22.00;46.00;;;;;;4970389;28;20219;-71
2022/08/15 02:19:48;;;;;;;0.40;0.40;;;22.10;47.10;;;;;;4954747;28;20254;-73
2022/08/15 02:22:19;;;;;;;2.13;0.67;;;22.00;45.50;;;;;;4972101;28;20192;-76
2022/08/15 02:24:47;;;;;;;1.40;0.40;;;21.70;47.30;;;;;;4972150;28;20183;-71
2022/08/15 02:27:16;;;;;;;1.97;0.40;;;21.10;45.30;;;;;;4954615;28;20633;-72
2022/08/15 02:29:44;;;;;;;0.93;0.47;;;20.60;48.00;;;;;;4972143;28;20183;-72
2022/08/15 02:32:18;;;;;;;1.40;0.60;;;20.00;51.30;;;;;;4954614;28;20228;-77
2022/08/15 02:34:47;;;;;;;2.27;0.57;;;19.50;52.20;;;;;;4973800;28;20182;-72
2022/08/15 02:37:20;;;;;;;0.77;0.40;;;19.10;54.60;;;;;;4975435;28;20210;-71
2022/08/15 02:39:50;;;;;;;1.23;0.67;;;18.90;58.40;;;;;;4959000;28;20636;-70
2022/08/15 02:42:19;;;;;;;1.53;0.40;;;19.00;61.70;;;;;;4975823;28;20638;-70
2022/08/15 02:44:49;;;;;;;5.70;0.77;;;19.20;64.90;;;;;;4976302;28;20179;-70
2022/08/15 02:47:18;;;;;;;1.23;0.83;;;19.10;63.60;;;;;;4975906;28;20242;-70
2022/08/15 02:49:47;;;;;;;0.60;0.40;;;19.10;67.50;;;;;;4976001;28;20673;-70
2022/08/15 02:52:15;;;;;;;0.83;0.60;;;19.10;70.00;;;;;;4975055;28;20246;-72
2022/08/15 02:54:43;;;;;;;1.63;0.60;;;19.40;67.40;;;;;;4975247;28;20183;-71
2022/08/15 02:57:11;;;;;;;2.23;0.60;;;19.30;60.30;;;;;;4975542;28;20176;-70
2022/08/15 02:59:39;;;;;;;1.47;0.50;;;19.60;64.60;;;;;;4975189;28;20179;-72
2022/08/15 03:02:07;;;;;;;2.03;0.67;;;20.40;63.30;;;;;;4975003;28;20655;-70
2022/08/15 03:04:35;;;;;;;3.27;0.70;;;20.60;60.40;;;;;;4957551;28;20189;-70
2022/08/15 03:07:04;;;;;;;2.53;0.73;;;20.50;64.60;;;;;;4974937;28;20179;-70
2022/08/15 03:09:31;;;;;;;1.30;0.50;;;20.10;59.10;;;;;;4974938;28;20187;-75
2022/08/15 03:11:59;;;;;;;1.70;0.63;;;19.40;61.20;;;;;;4974489;28;20617;-71
2022/08/15 03:14:28;;;;;;;1.27;0.50;;;19.10;63.60;;;;;;4975101;28;20175;-71
2022/08/15 03:16:59;;;;;;;1.13;0.50;;;18.90;69.90;;;;;;4974659;28;20179;-71
2022/08/15 03:19:27;;;;;;;0.40;0.40;;;18.60;64.70;;;;;;4974561;28;20219;-71
2022/08/15 03:21:54;;;;;;;4.57;0.70;;;18.50;65.20;;;;;;4974763;28;20187;-71
2022/08/15 03:24:23;;;;;;;1.67;0.60;;;18.50;69.30;;;;;;4974703;28;20182;-70
2022/08/15 03:26:51;;;;;;;5.40;1.47;;;18.30;69.40;;;;;;4974631;28;20646;-72
2022/08/15 03:29:20;;;;;;;5.30;1.00;;;18.20;72.10;;;;;;4974634;28;20262;-73
2022/08/15 03:31:50;;;;;;;3.07;0.60;;;18.30;75.20;;;;;;4974403;28;20749;-70
2022/08/15 03:34:26;;;;;;;3.60;0.70;;;18.60;80.30;;;;;;4974977;28;20179;-75
2022/08/15 03:36:54;;;;;;;1.80;0.60;;;18.90;78.60;;;;;;4956873;28;20197;-76
2022/08/15 03:39:22;;;;;;;1.80;0.50;;;19.10;75.40;;;;;;4957098;28;20185;-71
2022/08/15 03:41:49;;;;;;;0.50;0.30;;;19.20;77.10;;;;;;4957015;28;20188;-78
2022/08/15 03:44:18;;;;;;;1.43;0.57;;;19.10;73.50;;;;;;4974269;28;20182;-71
2022/08/15 03:46:45;;;;;;;1.53;0.57;;;19.90;74.20;;;;;;4956805;28;20685;-71
2022/08/15 03:49:15;;;;;;;1.40;0.50;;;20.10;71.10;;;;;;4974278;28;20175;-71
2022/08/15 03:51:43;;;;;;;3.20;0.60;;;19.70;72.40;;;;;;4956698;28;20205;-71
2022/08/15 03:54:12;;;;;;;0.50;0.50;;;19.40;77.50;;;;;;4974046;28;20507;-72
2022/08/15 03:56:39;;;;;;;0.97;0.50;;;19.30;82.30;;;;;;4973841;28;20298;-70
2022/08/15 03:59:07;;;;;;;1.20;0.67;;;18.80;81.70;;;;;;4974107;28;20264;-76
2022/08/15 04:01:37;;;;;;;2.83;0.50;;;18.60;89.10;;;;;;4973930;28;20195;-72
2022/08/15 04:04:05;;;;;;;2.23;0.60;;;18.70;91.00;;;;;;4973329;28;20191;-71
2022/08/15 04:06:33;;;;;;;1.27;0.60;;;18.90;92.00;;;;;;4956541;28;20198;-71
2022/08/15 04:09:01;;;;;;;2.50;0.50;;;19.10;90.70;;;;;;4973995;28;20176;-71
2022/08/15 04:11:30;;;;;;;2.07;0.70;;;19.40;93.90;;;;;;4973777;28;20293;-72
2022/08/15 04:13:59;;;;;;;1.13;0.63;;;19.10;93.00;;;;;;4973679;28;20187;-70
2022/08/15 04:16:26;;;;;;;0.87;0.43;;;18.90;92.40;;;;;;4973507;28;20238;-71
2022/08/15 04:18:54;;;;;;;2.77;0.67;;;18.70;93.90;;;;;;4973178;28;20810;-75
2022/08/15 04:21:22;;;;;;;1.50;0.60;;;18.50;96.70;;;;;;4973712;28;20175;-75
2022/08/15 04:23:50;;;;;;;2.00;0.90;;;18.30;99.10;;;;;;4956304;28;20203;-70
2022/08/15 04:26:18;;;;;;;1.83;0.57;;;18.10;99.90;;;;;;4972560;28;20598;-70
2022/08/15 04:28:46;;;;;;;0.50;0.40;;;18.10;99.90;;;;;;4972290;28;20183;-70
2022/08/15 04:31:18;;;;;;;3.17;0.70;;;17.90;99.90;;;;;;4973036;28;20249;-70
2022/08/15 04:33:46;;;;;;;0.90;0.60;;;18.00;99.90;;;;;;4973105;28;20679;-69
2022/08/15 04:36:17;;;;;;;1.03;0.60;;;18.50;99.90;;;;;;4972290;28;20194;-70
2022/08/15 04:38:47;;;;;;;1.10;0.63;;;18.60;99.90;;;;;;4955831;28;20351;-70
2022/08/15 04:41:15;;;;;;;1.37;0.60;;;18.70;99.90;;;;;;4973259;28;20298;-70
2022/08/15 04:43:44;;;;;;;2.00;0.50;;;18.70;99.90;;;;;;4972715;28;20198;-69
2022/08/15 04:46:13;;;;;;;0.50;0.50;;;18.50;99.90;;;;;;4973153;28;20319;-70
2022/08/15 04:48:44;;;;;;;1.90;0.70;;;18.50;99.90;;;;;;4972807;28;20250;-70
2022/08/15 04:51:13;;;;;;;0.70;0.60;;;18.20;99.90;;;;;;4972824;28;20198;-71
2022/08/15 04:53:41;;;;;;;2.27;0.70;;;18.00;99.90;;;;;;4972878;28;20194;-70
2022/08/15 04:56:09;;;;;;;0.57;0.50;;;18.00;99.90;;;;;;4972510;28;20194;-70
2022/08/15 04:58:37;;;;;;;2.03;0.70;;;18.00;99.90;;;;;;4972295;28;20577;-71
2022/08/15 05:01:09;;;;;;;0.97;0.60;;;18.40;99.90;;;;;;4973104;28;20183;-71
2022/08/15 05:03:38;;;;;;;0.50;0.40;;;18.70;99.90;;;;;;4972697;28;20562;-71
2022/08/15 05:06:09;;;;;;;0.50;0.50;;;18.80;99.90;;;;;;4972598;28;20295;-71
2022/08/15 05:08:40;;;;;;;0.57;0.50;;;18.70;99.90;;;;;;4954930;28;20195;-69
2022/08/15 05:11:12;;;;;;;1.40;0.50;;;18.30;99.90;;;;;;4972393;28;20608;-70
2022/08/15 05:13:41;;;;;;;0.83;0.60;;;18.20;99.90;;;;;;4972607;28;20610;-70
2022/08/15 05:16:12;;;;;;;0.50;0.50;;;17.80;99.90;;;;;;4972542;28;20266;-72
2022/08/15 05:18:42;;;;;;;0.50;0.50;;;17.50;99.90;;;;;;4972146;28;20293;-71
2022/08/15 05:21:11;;;;;;;1.13;0.60;;;17.30;99.90;;;;;;4972317;28;20290;-70
2022/08/15 05:23:41;;;;;;;2.03;0.50;;;17.30;99.90;;;;;;4971708;28;20190;-70
2022/08/15 05:26:10;;;;;;;1.67;0.70;;;17.30;99.90;;;;;;4972560;28;20647;-70
2022/08/15 05:28:38;;;;;;;2.57;0.50;;;17.20;99.90;;;;;;4954589;28;20560;-71
2022/08/15 05:31:09;;;;;;;1.07;0.60;;;17.10;99.90;;;;;;4972594;28;20203;-71
2022/08/15 05:33:41;;;;;;;2.30;0.57;;;17.10;99.90;;;;;;4972563;28;20206;-71
2022/08/15 05:36:09;;;;;;;4.23;0.60;;;17.10;99.90;;;;;;4972328;28;20214;-71
2022/08/15 05:38:41;;;;;;;2.10;0.60;;;17.00;99.90;;;;;;4971635;28;20214;-70
2022/08/15 05:41:33;;;;;;;1.00;0.57;;;17.00;99.90;;;;;;4972392;28;20262;-70
2022/08/15 05:44:22;;;;;;;0.67;0.47;;;16.80;99.90;;;;;;4972310;28;20187;-71
2022/08/15 05:47:06;;;;;;;0.70;0.47;;;16.70;99.90;;;;;;4955133;28;20218;-70
2022/08/15 05:50:11;;;;;;;0.90;0.50;;;16.60;99.90;;;;;;4955080;28;20183;-71
2022/08/15 05:53:11;;;;;;;0.40;0.40;;;16.40;99.90;;;;;;4972440;28;20381;-70
2022/08/15 05:56:00;;;;;;;1.23;0.70;;;16.30;99.90;;;;;;4957818;28;20218;-70
2022/08/15 05:59:07;;;;;;;0.90;0.63;;;16.30;99.90;;;;;;4971806;28;20190;-70
2022/08/15 06:01:54;;;;;;;1.00;0.70;;;16.20;99.90;;;;;;4912284;29;20220;-70
2022/08/15 06:04:47;;;;;;;0.67;0.60;;;16.20;99.90;;;;;;4963497;28;20296;-70
2022/08/15 06:07:17;;;;;;;0.80;0.60;;;16.00;99.90;;;;;;4972066;28;20183;-70
2022/08/15 06:10:07;;;;;;;1.83;0.80;;;15.90;99.90;;;;;;4956797;28;20210;-69
2022/08/15 06:12:46;;;;;;;0.87;0.50;;;15.90;99.90;;;;;;4942571;28;20710;-70
2022/08/15 06:15:26;;;;;;;2.90;0.90;;;15.80;99.90;;;;;;4959454;28;20183;-72
2022/08/15 06:18:01;;;;;;;3.47;0.60;;;15.60;99.90;;;;;;4975430;28;20338;-70
2022/08/15 06:20:56;;;;;;;3.13;0.70;;;15.70;99.90;;;;;;4958235;28;20546;-71
2022/08/15 06:24:00;;;;;;;1.40;0.70;;;15.60;99.90;;;;;;4975096;28;20187;-70
2022/08/15 06:26:55;;;;;;;1.63;0.70;;;15.60;99.90;;;;;;4975538;28;20606;-70
2022/08/15 06:29:22;;;;;;;0.50;0.50;;;15.60;99.90;;;;;;4957875;28;20592;-71
2022/08/15 06:32:03;;;;;;;1.07;0.60;;;15.40;99.90;;;;;;4957895;28;20645;-71
2022/08/15 06:34:59;;;;;;;0.70;0.63;;;15.40;99.90;;;;;;4975348;28;20245;-72
2022/08/15 06:37:45;;;;;;;2.00;0.83;;;15.40;99.90;;;;;;4974934;28;20187;-71
2022/08/15 06:40:27;;;;;;;0.70;0.70;;;15.30;99.90;;;;;;4975191;28;20179;-70
2022/08/15 06:42:56;;;;;;;0.80;0.60;;;15.30;99.90;;;;;;4975465;28;20197;-71
2022/08/15 06:45:34;;;;;;;0.70;0.70;;;15.20;99.90;;;;;;4975095;28;20190;-71
2022/08/15 06:48:15;;;;;;;0.90;0.70;;;15.20;99.90;;;;;;4975092;28;20270;-72
2022/08/15 06:50:55;;;;;;;1.20;0.70;;;15.10;99.90;;;;;;4955925;29;20188;-71
2022/08/15 06:53:48;;;;;;;1.43;0.80;;;15.00;99.90;;;;;;4948279;28;20830;-72
2022/08/15 06:56:37;;;;;;;1.23;0.70;;;14.90;99.90;;;;;;4972603;28;20223;-72
2022/08/15 06:59:08;;;;;;;1.23;0.83;;;14.80;99.90;;;;;;4974654;28;20551;-72
2022/08/15 07:01:55;;;;;;;1.43;0.90;;;14.70;99.90;;;;;;4974887;28;20224;-73
2022/08/15 07:04:33;;;;;;;3.97;1.13;;;14.70;99.90;;;;;;4957509;28;20198;-71
2022/08/15 07:07:22;;;;;;;4.73;0.87;;;14.60;99.90;;;;;;4974916;28;20256;-71
2022/08/15 07:10:25;;;;;;;6.40;1.00;;;14.70;99.90;;;;;;4974924;28;20190;-72
2022/08/15 07:12:58;;;;;;;1.90;0.80;;;14.60;99.90;;;;;;4962394;28;20237;-70
2022/08/15 07:15:37;;;;;;;4.43;0.87;;;14.60;99.90;;;;;;4957124;28;20651;-71
2022/08/15 07:18:23;;;;;;;2.83;0.80;;;14.60;99.90;;;;;;4974242;28;20233;-71
2022/08/15 07:20:59;;;;;;;2.57;0.70;;;14.50;99.90;;;;;;4974047;28;20210;-71
2022/08/15 07:23:30;;;;;;;4.93;0.80;;;14.40;99.90;;;;;;4974008;28;20184;-72
2022/08/15 07:26:12;;;;;;;5.37;0.80;;;14.30;99.90;;;;;;4974170;28;20233;-71
2022/08/15 07:28:50;;;;;;;1.07;0.60;;;14.30;99.90;;;;;;4974663;28;20174;-70
2022/08/15 07:31:36;;;;;;;1.80;0.60;;;14.30;99.90;;;;;;4958511;28;20190;-72
2022/08/15 07:34:17;;;;;;;3.77;0.70;;;14.30;99.90;;;;;;4972642;28;20198;-70
2022/08/15 07:37:03;;;;;;;0.80;0.70;;;14.20;99.90;;;;;;4972761;28;20181;-70
2022/08/15 07:39:43;;;;;;;1.67;0.60;;;14.20;99.90;;;;;;4977998;28;20273;-71
2022/08/15 07:42:19;;;;;;;0.70;0.70;;;14.20;99.90;;;;;;4954955;29;20175;-71
2022/08/15 07:44:54;;;;;;;1.00;0.70;;;14.10;99.90;;;;;;4956179;28;20188;-72
2022/08/15 07:47:28;;;;;;;1.23;0.90;;;14.10;99.90;;;;;;4973741;28;20560;-71
2022/08/15 07:50:35;;;;;;;2.73;0.90;;;14.10;99.90;;;;;;4974357;28;20188;-72
2022/08/15 07:53:19;;;;;;;1.17;0.80;;;14.00;99.90;;;;;;4962755;28;20228;-71
2022/08/15 07:56:09;;;;;;;2.13;1.10;;;14.00;99.90;;;;;;4956796;28;20185;-72
2022/08/15 07:58:39;;;;;;;2.30;0.63;;;13.90;99.90;;;;;;4973899;28;20186;-72
2022/08/15 08:01:15;;;;;;;1.10;1.00;;;13.90;99.90;;;;;;4974021;28;20626;-72
2022/08/15 08:03:49;;;;;;;1.83;0.90;;;13.80;99.90;;;;;;4973889;28;20624;-72
2022/08/15 08:06:32;;;;;;;3.87;0.97;;;13.80;99.90;;;;;;4973880;28;20186;-72
2022/08/15 08:09:22;;;;;;;1.80;1.00;;;13.90;99.90;;;;;;4973899;28;20318;-72
2022/08/15 08:11:57;;;;;;;1.63;0.80;;;13.80;99.90;;;;;;4968447;28;20214;-70
2022/08/15 08:15:03;;;;;;;1.43;0.90;;;13.80;99.90;;;;;;4957423;28;20652;-71
2022/08/15 08:17:39;;;;;;;2.37;0.87;;;13.80;99.90;;;;;;4973469;28;20187;-70
2022/08/15 08:20:13;;;;;;;6.93;2.10;;;13.80;99.90;;;;;;4973990;28;20188;-71
2022/08/15 08:22:55;;;;;;;1.00;0.90;;;13.70;99.90;;;;;;4973481;28;20194;-71
2022/08/15 08:25:50;;;;;;;1.27;0.90;;;13.70;99.90;;;;;;4937348;29;20199;-71
2022/08/15 08:28:27;;;;;;;4.77;1.00;;;13.70;99.90;;;;;;4954379;29;20176;-72
2022/08/15 08:31:14;;;;;;;1.73;0.80;;;13.70;99.90;;;;;;4963893;28;20189;-69
2022/08/15 08:34:05;;;;;;;2.00;0.97;;;13.60;99.90;;;;;;4972942;28;20210;-72
2022/08/15 08:36:40;;;;;;;1.63;0.90;;;13.60;99.90;;;;;;4973457;28;20548;-71
2022/08/15 08:39:29;;;;;;;1.47;0.90;;;13.60;99.90;;;;;;4955906;28;20193;-73
2022/08/15 08:42:09;;;;;;;1.90;1.27;;;13.50;99.90;;;;;;4973302;28;20185;-71
2022/08/15 08:44:50;;;;;;;6.27;1.63;;;13.60;99.90;;;;;;4973304;28;20205;-71
2022/08/15 08:47:56;;;;;;;4.03;1.67;;;13.60;99.90;;;;;;4955554;28;20220;-71
2022/08/15 08:50:39;;;;;;;2.63;2.00;;;13.60;99.90;;;;;;4973094;28;20194;-72
2022/08/15 08:53:30;;;;;;;2.33;1.77;;;13.60;99.90;;;;;;4973221;28;20272;-69
2022/08/15 08:56:15;;;;;;;2.97;1.53;;;13.60;99.90;;;;;;4973041;28;20636;-71
2022/08/15 08:58:49;;;;;;;3.57;1.30;;;13.60;99.90;;;;;;4972664;28;20179;-71
2022/08/15 09:01:22;;;;;;;3.97;1.00;;;13.50;99.90;;;;;;4973078;28;20264;-70
2022/08/15 09:04:04;;;;;;;5.43;1.20;;;13.50;99.90;;;;;;4972941;28;20640;-69
2022/08/15 09:06:39;;;;;;;1.37;1.00;;;13.50;99.90;;;;;;4972745;28;20678;-70
2022/08/15 09:09:29;;;;;;;4.53;1.87;;;13.40;99.90;;;;;;4973035;28;20206;-70
2022/08/15 09:15:07;;;;;;;6.30;1.17;;;13.40;99.90;;;;;;4972907;28;20203;-71
2022/08/15 09:17:36;;;;;;;3.53;1.17;;;13.30;99.90;;;;;;4972321;28;20180;-72
2022/08/15 09:20:17;;;;;;;4.83;1.07;;;13.30;99.90;;;;;;4972050;28;20300;-73
2022/08/15 09:22:45;;;;;;;2.90;1.00;;;13.30;99.90;;;;;;4972903;28;20557;-72
2022/08/15 09:25:13;;;;;;;3.10;1.17;;;13.30;99.90;;;;;;4955243;28;20200;-72
2022/08/15 09:27:49;;;;;;;1.50;0.83;;;13.30;99.90;;;;;;4972779;28;20553;-71
2022/08/15 09:30:19;;;;;;;1.37;0.90;;;13.30;99.90;;;;;;4972769;28;20215;-71
2022/08/15 09:33:12;;;;;;;2.53;0.97;;;13.40;99.90;;;;;;4955347;28;20661;-70
2022/08/15 09:36:01;;;;;;;0.80;0.80;;;13.40;99.90;;;;;;4972657;28;20196;-71
2022/08/15 09:38:54;;;;;;;1.53;0.87;;;13.40;99.90;;;;;;4971399;28;20190;-71
2022/08/15 09:41:34;;;;;;;1.80;1.00;;;13.30;99.90;;;;;;4957424;28;20213;-71
2022/08/15 09:44:20;;;;;;;2.37;1.40;;;13.30;99.90;;;;;;4975176;28;20307;-70
2022/08/15 09:47:14;;;;;;;2.40;1.20;;;13.30;99.90;;;;;;4979691;28;20268;-71
2022/08/15 09:50:01;;;;;;;1.90;1.07;;;13.20;99.90;;;;;;4977729;28;20283;-72
2022/08/15 09:52:40;;;;;;;6.63;1.93;;;13.10;99.90;;;;;;4977096;28;20243;-72
2022/08/15 09:55:32;;;;;;;1.47;1.00;;;13.00;99.90;;;;;;4975988;28;20188;-71
2022/08/15 09:58:26;;;;;;;4.00;0.97;;;13.00;99.90;;;;;;4976026;28;20189;-70
2022/08/15 10:01:17;;;;;;;1.10;0.93;;;12.90;99.90;;;;;;4976235;28;20192;-70
2022/08/15 10:03:53;;;;;;;2.33;1.10;;;12.90;99.90;;;;;;4976310;28;20263;-70
2022/08/15 10:06:25;;;;;;;1.10;1.00;;;12.80;99.90;;;;;;4975440;28;20679;-71
2022/08/15 10:08:53;;;;;;;1.27;0.83;;;12.80;99.90;;;;;;4976162;28;20234;-70
2022/08/15 10:11:39;;;;;;;1.10;1.00;;;12.90;99.90;;;;;;4976075;28;20239;-72
2022/08/15 10:14:25;;;;;;;0.70;0.70;;;12.90;99.90;;;;;;4975860;28;20219;-72
2022/08/15 10:17:21;;;;;;;0.90;0.77;;;12.80;99.90;;;;;;4975876;28;20177;-71
2022/08/15 10:19:49;;;;;;;1.93;0.80;;;12.70;99.90;;;;;;4975800;28;20196;-70
2022/08/15 10:22:24;;;;;;;2.17;0.93;;;12.70;99.90;;;;;;4976133;28;20671;-71
2022/08/15 10:25:18;;;;;;;1.23;0.80;;;12.50;99.90;;;;;;4976465;28;20251;-70
2022/08/15 10:28:12;;;;;;;1.23;0.93;;;12.40;99.90;;;;;;4976335;28;20181;-70
2022/08/15 10:30:46;;;;;;;1.17;0.90;;;12.40;99.90;;;;;;4959030;28;20185;-70
2022/08/15 10:33:34;;;;;;;1.67;1.10;;;12.30;99.90;;;;;;4975778;28;20219;-70
2022/08/15 10:36:13;;;;;;;1.90;1.43;;;12.10;99.90;;;;;;4975632;28;20177;-69
2022/08/15 10:39:25;;;;;;;3.73;1.60;;;12.10;99.90;;;;;;4958217;28;20575;-70
2022/08/15 10:42:13;;;;;;;1.93;1.40;;;12.10;99.90;;;;;;4975432;28;20625;-70
2022/08/15 10:44:56;;;;;;;1.87;1.53;;;12.20;99.90;;;;;;4975568;28;20695;-71
2022/08/15 10:47:26;;;;;;;4.50;1.70;;;12.20;99.90;;;;;;4975439;28;20714;-72
2022/08/15 10:49:59;;;;;;;3.97;1.70;;;12.20;99.90;;;;;;4975394;28;20184;-71
2022/08/15 10:52:38;;;;;;;3.80;2.10;;;12.00;99.90;;;;;;4975017;28;20212;-72
2022/08/15 10:55:27;;;;;;;3.90;2.00;;;11.90;99.90;;;;;;4974552;28;20260;-70
2022/08/15 10:58:01;;;;;;;4.30;2.27;;;11.80;99.90;;;;;;4974322;28;20184;-71
2022/08/15 11:00:53;;;;;;;4.57;2.60;;;11.70;99.90;;;;;;4975413;28;20185;-72
2022/08/15 11:03:50;;;;;;;5.57;2.90;;;11.60;99.90;;;;;;4957071;28;20190;-72
2022/08/15 11:06:21;;;;;;;3.20;1.93;;;11.60;99.90;;;;;;4966253;28;20331;-71
2022/08/15 11:08:58;;;;;;;1.97;1.77;;;11.40;99.90;;;;;;4958026;28;20195;-72
2022/08/15 11:11:32;;;;;;;3.93;2.17;;;11.40;99.90;;;;;;4957571;28;20185;-72
2022/08/15 11:14:11;;;;;;;2.80;1.77;;;11.30;99.90;;;;;;4974838;28;20199;-71
2022/08/15 11:16:46;;;;;;;6.03;2.60;;;11.40;99.90;;;;;;4974001;28;20638;-72
2022/08/15 11:19:38;;;;;;;3.87;2.40;;;11.40;99.90;;;;;;4974314;28;20320;-71
2022/08/15 11:22:19;;;;;;;3.43;1.87;;;11.30;99.90;;;;;;4974545;28;20192;-72
2022/08/15 11:25:00;;;;;;;6.33;2.30;;;11.30;99.90;;;;;;4974517;28;20555;-72
2022/08/15 11:27:29;;;;;;;4.43;2.00;;;11.20;99.90;;;;;;4974314;28;20184;-71
2022/08/15 11:29:58;;;;;;;4.57;2.37;;;11.10;99.90;;;;;;4974556;28;20270;-71
2022/08/15 11:32:36;;;;;;;3.93;2.53;;;11.20;99.90;;;;;;4974354;28;20668;-70
2022/08/15 11:35:21;;;;;;;3.80;2.23;;;11.10;99.90;;;;;;4974606;28;20189;-71
2022/08/15 11:37:49;;;;;;;3.73;2.27;;;11.20;99.90;;;;;;4974242;28;20606;-71
2022/08/15 11:40:30;;;;;;;4.00;1.77;;;11.40;99.90;;;;;;4975293;28;20189;-71
2022/08/15 11:43:01;;;;;;;3.17;1.80;;;11.50;99.90;;;;;;4958249;28;20187;-72
2022/08/15 11:45:34;;;;;;;3.10;1.77;;;11.70;99.90;;;;;;4975537;28;20548;-71
2022/08/15 11:48:14;;;;;;;4.63;2.27;;;11.70;99.90;;;;;;4975640;28;20208;-71
2022/08/15 11:50:54;;;;;;;4.47;2.30;;;11.80;99.90;;;;;;4958071;28;20219;-70
2022/08/15 11:53:31;;;;;;;3.40;2.03;;;11.70;99.90;;;;;;4941417;29;20224;-71
2022/08/15 11:55:59;;;;;;;4.63;2.13;;;11.60;99.90;;;;;;4939074;29;20180;-72
2022/08/15 11:58:36;;;;;;;4.20;2.17;;;11.60;99.90;;;;;;4956366;29;20185;-71
2022/08/15 12:01:32;;;;;;;1.83;1.73;;;11.60;99.90;;;;;;4956131;29;20189;-72
2022/08/15 12:04:06;;;;;;;5.20;1.77;;;11.60;99.90;;;;;;4956198;29;20184;-72
2022/08/15 12:06:37;;;;;;;4.37;2.00;;;11.70;99.90;;;;;;4955878;28;20184;-72
2022/08/15 12:09:09;;;;;;;5.27;2.00;;;11.70;99.90;;;;;;4956190;29;20236;-71
2022/08/15 12:11:43;;;;;;;4.67;1.97;;;11.70;99.90;;;;;;4956296;29;20178;-71
2022/08/15 12:14:30;;;;;;;1.97;1.60;;;11.70;99.90;;;;;;4938915;29;20189;-71
2022/08/15 12:17:02;;;;;;;2.83;2.03;;;11.80;99.90;;;;;;4936359;29;20234;-70
2022/08/15 12:19:47;;;;;;;3.93;2.07;;;11.70;99.90;;;;;;4955997;29;20247;-71
2022/08/15 12:22:40;;;;;;;3.77;2.10;;;11.70;99.90;;;;;;4956013;29;20203;-73
2022/08/15 12:25:09;;;;;;;3.60;2.03;;;11.60;99.90;;;;;;4955949;29;20231;-71
2022/08/15 12:27:37;;;;;;;2.50;1.70;;;11.60;99.90;;;;;;4955794;29;20232;-71
2022/08/15 12:30:07;;;;;;;3.40;2.03;;;11.70;99.90;;;;;;4956015;29;20264;-72
2022/08/15 12:32:36;;;;;;;2.90;1.67;;;11.70;99.90;;;;;;4974404;28;20221;-72
2022/08/15 12:35:06;;;;;;;2.90;2.10;;;11.60;99.90;;;;;;4974764;28;20193;-73
2022/08/15 12:37:34;;;;;;;3.47;1.90;;;11.60;99.90;;;;;;4975009;28;20178;-73
2022/08/15 12:40:07;;;;;;;2.20;1.70;;;11.60;99.90;;;;;;4974997;28;20194;-70
2022/08/15 12:42:36;;;;;;;2.70;1.70;;;11.60;99.90;;;;;;4974826;28;20663;-72
2022/08/15 12:45:16;;;;;;;2.13;1.90;;;11.60;99.90;;;;;;4974897;28;20714;-72
2022/08/15 12:47:44;;;;;;;2.10;1.70;;;11.70;99.90;;;;;;4974315;28;20671;-72
2022/08/15 12:50:12;;;;;;;4.27;2.00;;;11.70;99.90;;;;;;4974349;28;20188;-72
2022/08/15 12:52:41;;;;;;;4.13;2.10;;;11.70;99.90;;;;;;4974355;28;20660;-72
2022/08/15 12:55:09;;;;;;;3.37;2.10;;;11.70;99.90;;;;;;4974481;28;20666;-71
2022/08/15 12:57:37;;;;;;;1.80;1.70;;;11.70;99.90;;;;;;4974087;28;20277;-72
2022/08/15 13:00:07;;;;;;;5.77;1.90;;;11.70;99.90;;;;;;4974505;28;20632;-72
2022/08/15 13:02:40;;;;;;;2.77;1.80;;;11.60;99.90;;;;;;4974173;28;20188;-72
2022/08/15 13:05:18;;;;;;;1.53;1.40;;;11.70;99.90;;;;;;4974656;28;20177;-72
2022/08/15 13:07:45;;;;;;;2.60;1.80;;;11.60;99.90;;;;;;4974236;28;20191;-72
2022/08/15 13:10:17;;;;;;;3.77;2.03;;;11.60;99.90;;;;;;4974333;28;20179;-72
2022/08/15 13:12:45;;;;;;;2.40;1.83;;;11.60;99.90;;;;;;4974154;28;20221;-73
2022/08/15 13:15:12;;;;;;;4.10;1.80;;;11.60;99.90;;;;;;4956803;28;20192;-73
2022/08/15 13:17:40;;;;;;;4.27;2.20;;;11.60;99.90;;;;;;4955419;28;20230;-73
2022/08/15 13:25:39;;;;;;;3.00;1.70;;;11.50;99.90;;;;;;4974511;28;20190;-73
2022/08/15 13:28:06;;;;;;;2.40;1.73;;;11.50;99.90;;;;;;4974385;28;20547;-71
2022/08/15 13:30:35;;;;;;;3.20;1.80;;;11.60;99.90;;;;;;4973880;28;20188;-72
2022/08/15 13:33:03;;;;;;;4.10;2.10;;;11.70;99.90;;;;;;4974066;28;20737;-73
2022/08/15 13:35:37;;;;;;;2.77;1.60;;;11.60;99.90;;;;;;4974182;28;20173;-73
2022/08/15 13:38:06;;;;;;;6.43;1.97;;;11.60;99.90;;;;;;4973785;28;20215;-71
2022/08/15 13:40:34;;;;;;;3.13;1.93;;;11.50;99.90;;;;;;4973953;28;20542;-73
2022/08/15 13:43:03;;;;;;;3.30;1.60;;;11.50;99.90;;;;;;4957142;28;20181;-73